createdAt,value
2022-12-04T00:04:19.869Z,-8.50
2022-12-04T00:09:25.940Z,-8.40
2022-12-04T00:14:32.102Z,-8.29
2022-12-04T00:19:38.202Z,-8.14
2022-12-04T00:24:43.281Z,-7.96
2022-12-04T00:29:49.812Z,-7.78
2022-12-04T00:34:56.484Z,-7.62
2022-12-04T00:40:01.785Z,-7.44
2022-12-04T00:45:08.543Z,-7.20
2022-12-04T00:50:16.126Z,-6.96
2022-12-04T00:55:43.803Z,-6.72
2022-12-04T01:00:50.662Z,-6.58
2022-12-04T01:12:56.860Z,-6.33
2022-12-04T01:18:22.711Z,-6.08
2022-12-04T01:23:33.733Z,-5.95
2022-12-04T01:28:42.181Z,-5.76
2022-12-04T01:33:49.018Z,-5.73
2022-12-04T01:38:54.895Z,-5.57
2022-12-04T01:44:22.625Z,-5.33
2022-12-04T01:49:39.951Z,-5.18
2022-12-04T01:54:50.427Z,-5.06
2022-12-04T01:59:59.615Z,-4.88
2022-12-04T02:05:05.428Z,-4.77
2022-12-04T02:10:13.993Z,-4.67
2022-12-04T02:15:24.787Z,-4.49
2022-12-04T02:20:42.585Z,-4.32
2022-12-04T02:26:16.245Z,-4.19
2022-12-04T02:31:24.675Z,-4.04
2022-12-04T02:36:36.863Z,-3.87
2022-12-04T02:42:02.500Z,-3.71
2022-12-04T02:47:14.018Z,-3.57
2022-12-04T02:52:25.202Z,-3.49
2022-12-04T02:57:36.422Z,-3.37
2022-12-04T03:03:06.065Z,-3.24
2022-12-04T03:08:18.748Z,-3.14
2022-12-04T03:13:43.170Z,-3.08
2022-12-04T03:19:12.164Z,-3.02
2022-12-04T03:24:22.600Z,-2.93
2022-12-04T03:29:55.937Z,-2.86
2022-12-04T03:35:35.829Z,-2.79
2022-12-04T03:41:07.682Z,-2.70
2022-12-04T03:46:39.559Z,-2.62
2022-12-04T03:52:44.270Z,-2.54
2022-12-04T03:57:54.393Z,-2.41
2022-12-04T04:03:11.449Z,-2.30
2022-12-04T04:08:36.410Z,-2.19
2022-12-04T04:14:18.769Z,-2.15
2022-12-04T04:19:56.024Z,-2.05
2022-12-04T04:25:17.119Z,-1.98
2022-12-04T04:30:22.924Z,-1.86
2022-12-04T04:35:36.115Z,-1.73
2022-12-04T04:40:58.185Z,-1.61
2022-12-04T04:46:18.054Z,-1.53
2022-12-04T04:51:25.117Z,-1.47
2022-12-04T04:56:35.514Z,-1.44
2022-12-04T05:01:43.651Z,-1.40
2022-12-04T05:06:50.224Z,-1.30
2022-12-04T05:11:57.473Z,-1.18
2022-12-04T05:17:10.894Z,-1.15
2022-12-04T05:22:20.357Z,-1.08
2022-12-04T05:27:26.784Z,-1.06
2022-12-04T05:32:34.855Z,-1.00
2022-12-04T05:37:43.562Z,-0.97
2022-12-04T05:42:50.204Z,-0.92
2022-12-04T05:47:56.722Z,-0.85
2022-12-04T05:53:03.144Z,-0.84
2022-12-04T05:58:09.893Z,-0.79
2022-12-04T06:03:24.956Z,-0.77
2022-12-04T06:08:30.522Z,-0.77
2022-12-04T06:13:37.477Z,-0.79
2022-12-04T06:18:43.175Z,-0.77
2022-12-04T06:23:50.540Z,-0.76
2022-12-04T06:29:03.909Z,-0.79
2022-12-04T06:34:11.260Z,-0.82
2022-12-04T06:39:19.168Z,-0.80
2022-12-04T06:44:25.124Z,-0.77
2022-12-04T06:49:32.266Z,-0.79
2022-12-04T06:54:40.202Z,-0.84
2022-12-04T06:59:45.650Z,-0.89
2022-12-04T07:04:51.001Z,-0.96
2022-12-04T07:09:57.874Z,-1.04
2022-12-04T07:15:04.372Z,-1.13
2022-12-04T07:20:12.998Z,-1.20
2022-12-04T07:25:18.643Z,-1.30
2022-12-04T07:30:25.193Z,-1.37
2022-12-04T07:35:30.567Z,-1.43
2022-12-04T07:40:35.832Z,-1.49
2022-12-04T07:45:43.991Z,-1.55
2022-12-04T07:50:50.738Z,-1.62
2022-12-04T07:55:58.619Z,-1.70
2022-12-04T08:01:17.785Z,-1.76
2022-12-04T08:06:25.917Z,-1.82
2022-12-04T08:11:33.406Z,-1.89
2022-12-04T08:16:40.968Z,-1.96
2022-12-04T08:21:47.128Z,-2.05
2022-12-04T08:26:52.995Z,-2.12
2022-12-04T08:31:58.379Z,-2.19
2022-12-04T08:37:03.758Z,-2.30
2022-12-04T08:42:08.926Z,-2.44
2022-12-04T08:47:14.711Z,-2.56
2022-12-04T08:52:21.599Z,-2.69
2022-12-04T08:57:30.218Z,-2.77
2022-12-04T09:02:35.688Z,-2.91
2022-12-04T09:07:41.024Z,-2.96
2022-12-04T09:12:47.536Z,-3.08
2022-12-04T09:17:52.698Z,-3.14
2022-12-04T09:23:04.822Z,-3.20
2022-12-04T09:28:11.560Z,-3.26
2022-12-04T09:33:16.713Z,-3.32
2022-12-04T09:38:23.280Z,-3.38
2022-12-04T09:43:47.928Z,-3.46
2022-12-04T09:48:54.991Z,-3.55
2022-12-04T09:54:16.403Z,-3.62
2022-12-04T09:59:28.965Z,-3.69
2022-12-04T10:04:35.169Z,-3.76
2022-12-04T10:09:53.435Z,-3.81
2022-12-04T10:15:07.031Z,-3.89
2022-12-04T10:20:35.065Z,-3.93
2022-12-04T10:25:42.121Z,-4.05
2022-12-04T10:30:49.555Z,-4.15
2022-12-04T10:35:58.629Z,-4.26
2022-12-04T10:41:28.504Z,-4.33
2022-12-04T10:46:43.158Z,-4.40
2022-12-04T10:51:52.170Z,-4.43
2022-12-04T10:57:09.329Z,-4.49
2022-12-04T11:02:23.118Z,-4.54
2022-12-04T11:07:47.044Z,-4.54
2022-12-04T11:13:05.291Z,-4.54
2022-12-04T11:18:29.137Z,-4.57
2022-12-04T11:23:51.287Z,-4.58
2022-12-04T11:29:06.007Z,-4.63
2022-12-04T11:34:22.067Z,-4.65
2022-12-04T11:39:44.759Z,-4.69
2022-12-04T11:45:03.662Z,-4.75
2022-12-04T11:50:39.259Z,-4.79
2022-12-04T11:56:08.307Z,-4.82
2022-12-04T12:01:39.169Z,-4.83
2022-12-04T12:07:21.027Z,-4.95
2022-12-04T12:12:32.977Z,-5.07
2022-12-04T12:18:10.341Z,-5.16
2022-12-04T12:23:28.528Z,-5.21
2022-12-04T12:29:03.326Z,-5.35
2022-12-04T12:34:20.793Z,-5.49
2022-12-04T12:39:41.555Z,-5.65
2022-12-04T12:44:52.482Z,-5.75
2022-12-04T12:49:58.265Z,-5.83
2022-12-04T12:55:29.884Z,-5.92
2022-12-04T13:00:45.472Z,-6.00
2022-12-04T13:05:58.019Z,-6.05
2022-12-04T13:11:18.154Z,-6.07
2022-12-04T13:16:51.798Z,-6.10
2022-12-04T13:22:08.579Z,-6.11
2022-12-04T13:27:18.191Z,-6.15
2022-12-04T13:32:52.788Z,-6.20
2022-12-04T13:38:18.930Z,-6.30
2022-12-04T13:43:38.237Z,-6.38
2022-12-04T13:48:45.497Z,-6.45
2022-12-04T13:54:02.405Z,-6.49
2022-12-04T13:59:24.765Z,-6.50
2022-12-04T14:04:36.125Z,-6.47
2022-12-04T14:09:54.860Z,-6.42
2022-12-04T14:15:10.965Z,-6.41
2022-12-04T14:20:34.884Z,-6.50
2022-12-04T14:25:49.285Z,-6.58
2022-12-04T14:31:16.951Z,-6.64
2022-12-04T14:36:42.276Z,-6.66
2022-12-04T14:41:48.528Z,-6.62
2022-12-04T14:47:09.585Z,-6.64
2022-12-04T14:52:35.624Z,-6.67
2022-12-04T14:58:30.089Z,-6.72
2022-12-04T15:03:46.927Z,-6.82
2022-12-04T15:09:19.164Z,-6.92
2022-12-04T15:14:24.617Z,-6.98
2022-12-04T15:19:30.121Z,-6.96
2022-12-04T15:24:35.669Z,-6.94
2022-12-04T15:29:51.723Z,-6.95
2022-12-04T15:35:05.098Z,-7.06
2022-12-04T15:40:13.425Z,-7.15
2022-12-04T15:45:24.480Z,-7.14
2022-12-04T15:50:32.733Z,-7.13
2022-12-04T15:56:04.822Z,-7.16
2022-12-04T16:01:17.143Z,-7.17
2022-12-04T16:06:30.518Z,-7.19
2022-12-04T16:11:40.120Z,-7.24
2022-12-04T16:16:51.500Z,-7.32
2022-12-04T16:21:58.434Z,-7.44
2022-12-04T16:27:04.897Z,-7.49
2022-12-04T16:32:19.576Z,-7.50
2022-12-04T16:37:26.086Z,-7.53
2022-12-04T16:42:33.004Z,-7.56
2022-12-04T16:47:38.543Z,-7.59
2022-12-04T16:52:43.847Z,-7.67
2022-12-04T16:57:49.429Z,-7.71
2022-12-04T17:02:55.239Z,-7.79
2022-12-04T17:08:03.439Z,-7.82
2022-12-04T17:13:09.435Z,-7.77
2022-12-04T17:18:20.752Z,-7.72
2022-12-04T17:23:27.157Z,-7.70
2022-12-04T17:28:33.365Z,-7.81
2022-12-04T17:33:38.631Z,-7.86
2022-12-04T17:38:47.301Z,-7.93
2022-12-04T17:43:53.071Z,-8.00
2022-12-04T17:49:03.942Z,-8.04
2022-12-04T17:54:13.682Z,-8.09
2022-12-04T17:59:19.139Z,-8.14
2022-12-04T18:04:24.523Z,-8.11
2022-12-04T18:09:29.798Z,-8.13
2022-12-04T18:14:35.802Z,-8.14
2022-12-04T18:19:42.824Z,-8.15
2022-12-04T18:24:47.882Z,-8.15
2022-12-04T18:29:53.115Z,-8.18
2022-12-04T18:34:58.305Z,-8.25
2022-12-04T18:40:06.509Z,-8.30
2022-12-04T18:45:13.384Z,-8.37
2022-12-04T18:50:18.794Z,-8.40
2022-12-04T18:55:23.905Z,-8.50
2022-12-04T19:00:28.936Z,-8.58
2022-12-04T19:05:34.747Z,-8.63
2022-12-04T19:10:39.927Z,-8.67
2022-12-04T19:15:47.650Z,-8.70
2022-12-04T19:20:54.186Z,-8.72
2022-12-04T19:26:01.360Z,-8.75
2022-12-04T19:31:06.446Z,-8.73
2022-12-04T19:36:13.457Z,-8.70
2022-12-04T19:41:22.727Z,-8.66
2022-12-04T19:46:31.644Z,-8.63
2022-12-04T19:51:39.846Z,-8.63
2022-12-04T19:56:47.580Z,-8.67
2022-12-04T20:01:52.768Z,-8.71
2022-12-04T20:06:57.878Z,-8.77
2022-12-04T20:12:02.879Z,-8.82
2022-12-04T20:17:07.833Z,-8.85
2022-12-04T20:22:13.624Z,-8.92
2022-12-04T20:27:18.612Z,-8.96
2022-12-04T20:32:23.656Z,-9.02
2022-12-04T20:37:28.652Z,-9.09
2022-12-04T20:42:34.709Z,-9.21
2022-12-04T20:47:41.943Z,-9.30
2022-12-04T20:52:47.607Z,-9.31
2022-12-04T20:57:53.169Z,-9.36
2022-12-04T21:02:58.231Z,-9.33
2022-12-04T21:08:03.275Z,-9.43
2022-12-04T21:13:26.432Z,-9.49
2022-12-04T21:18:31.425Z,-9.58
2022-12-04T21:23:37.223Z,-9.66
2022-12-04T21:28:43.258Z,-9.75
2022-12-04T21:33:48.345Z,-9.80
2022-12-04T21:38:54.051Z,-9.82
2022-12-04T21:43:59.010Z,-9.81
2022-12-04T21:49:04.143Z,-9.77
2022-12-04T21:54:09.287Z,-9.72
2022-12-04T21:59:14.474Z,-9.71
2022-12-04T22:04:19.813Z,-9.71
2022-12-04T22:09:24.832Z,-9.75
2022-12-04T22:14:29.933Z,-9.75
2022-12-04T22:19:35.366Z,-9.86
2022-12-04T22:24:40.291Z,-9.95
2022-12-04T22:29:52.278Z,-9.97
2022-12-04T22:34:57.336Z,-10.01
2022-12-04T22:40:02.303Z,-10.02
2022-12-04T22:45:07.630Z,-10.08
2022-12-04T22:50:13.606Z,-10.11
2022-12-04T22:55:18.634Z,-10.20
2022-12-04T23:00:23.786Z,-10.22
2022-12-04T23:05:28.802Z,-10.21
2022-12-04T23:10:33.942Z,-10.21
2022-12-04T23:15:41.292Z,-10.17
2022-12-04T23:20:46.174Z,-10.14
2022-12-04T23:25:51.249Z,-10.27
2022-12-04T23:30:56.242Z,-10.35
2022-12-04T23:36:03.772Z,-10.36
2022-12-04T23:41:20.971Z,-10.33
2022-12-04T23:46:33.511Z,-10.30
2022-12-04T23:51:38.705Z,-10.31
2022-12-04T23:56:43.811Z,-10.24
